createdAt,value
2017-09-07T00:00:50.009Z,77.40
2017-09-07T00:03:17.560Z,76.90
2017-09-07T00:05:45.104Z,77.00
2017-09-07T00:08:12.680Z,78.00
2017-09-07T00:10:40.239Z,77.40
2017-09-07T00:13:07.812Z,77.00
2017-09-07T00:15:35.347Z,76.80
2017-09-07T00:18:02.925Z,76.30
2017-09-07T00:20:31.227Z,76.50
2017-09-07T00:22:58.791Z,76.50
2017-09-07T00:25:26.359Z,76.70
2017-09-07T00:27:54.715Z,76.10
2017-09-07T00:30:22.268Z,75.80
2017-09-07T00:32:49.817Z,75.70
2017-09-07T00:35:17.402Z,75.80
2017-09-07T00:37:45.003Z,76.50
2017-09-07T00:40:12.577Z,76.70
2017-09-07T00:42:40.171Z,75.80
2017-09-07T00:45:07.782Z,75.50
2017-09-07T00:47:35.322Z,75.60
2017-09-07T00:50:03.671Z,75.60
2017-09-07T00:52:31.255Z,75.60
2017-09-07T00:54:59.592Z,75.00
2017-09-07T00:57:27.180Z,75.00
2017-09-07T00:59:54.732Z,74.80
2017-09-07T01:02:22.309Z,75.00
2017-09-07T01:04:50.614Z,74.20
2017-09-07T01:07:18.185Z,73.50
2017-09-07T01:09:45.727Z,72.80
2017-09-07T01:12:14.083Z,72.30
2017-09-07T01:14:42.390Z,72.50
2017-09-07T01:17:09.975Z,71.80
2017-09-07T01:19:37.562Z,72.10
2017-09-07T01:22:05.149Z,71.10
2017-09-07T01:24:33.540Z,70.60
2017-09-07T01:27:01.900Z,70.50
2017-09-07T01:29:30.260Z,70.60
2017-09-07T01:31:57.826Z,70.60
2017-09-07T01:34:25.408Z,70.00
2017-09-07T01:36:53.743Z,69.90
2017-09-07T01:39:21.335Z,69.90
2017-09-07T01:41:49.656Z,69.50
2017-09-07T01:44:17.213Z,69.50
2017-09-07T01:46:44.788Z,70.30
2017-09-07T01:49:12.341Z,70.50
2017-09-07T01:51:39.917Z,70.70
2017-09-07T01:54:07.474Z,70.90
2017-09-07T01:56:35.035Z,71.10
2017-09-07T01:59:02.612Z,70.80
2017-09-07T02:01:30.228Z,70.80
2017-09-07T02:03:57.794Z,70.90
2017-09-07T02:06:25.380Z,71.20
2017-09-07T02:08:52.932Z,71.40
2017-09-07T02:11:20.494Z,71.10
2017-09-07T02:13:48.064Z,71.20
2017-09-07T02:16:15.632Z,70.80
2017-09-07T02:18:43.222Z,70.30
2017-09-07T02:21:11.538Z,70.40
2017-09-07T02:23:39.107Z,70.20
2017-09-07T02:26:06.678Z,69.70
2017-09-07T02:28:34.279Z,69.80
2017-09-07T02:31:02.587Z,69.50
2017-09-07T02:33:30.306Z,69.50
2017-09-07T02:35:58.662Z,70.20
2017-09-07T02:38:26.220Z,69.90
2017-09-07T02:40:53.791Z,69.90
2017-09-07T02:43:21.350Z,69.50
2017-09-07T02:45:48.905Z,69.80
2017-09-07T02:48:16.481Z,69.60
2017-09-07T02:50:44.813Z,70.60
2017-09-07T02:53:12.408Z,70.30
2017-09-07T02:55:39.976Z,70.30
2017-09-07T02:58:07.515Z,70.50
2017-09-07T03:00:35.094Z,70.60
2017-09-07T03:03:02.651Z,70.80
2017-09-07T03:05:30.219Z,70.80
2017-09-07T03:07:58.554Z,70.90
2017-09-07T03:10:26.118Z,70.80
2017-09-07T03:12:53.692Z,70.80
2017-09-07T03:15:21.250Z,71.10
2017-09-07T03:17:48.844Z,71.10
2017-09-07T03:20:17.157Z,71.70
2017-09-07T03:22:44.718Z,71.60
2017-09-07T03:25:12.294Z,71.60
2017-09-07T03:27:39.844Z,72.10
2017-09-07T03:30:07.422Z,72.10
2017-09-07T03:32:34.980Z,71.60
2017-09-07T03:35:02.521Z,71.90
2017-09-07T03:37:30.114Z,71.50
2017-09-07T03:39:57.705Z,71.50
2017-09-07T03:42:26.051Z,71.50
2017-09-07T03:44:53.616Z,71.50
2017-09-07T03:47:21.177Z,70.80
2017-09-07T03:49:48.759Z,70.80
2017-09-07T03:52:17.076Z,71.10
2017-09-07T03:54:44.664Z,71.10
2017-09-07T03:57:12.224Z,71.10
2017-09-07T03:59:39.786Z,70.90
2017-09-07T04:02:07.474Z,71.20
2017-09-07T04:04:35.797Z,71.40
2017-09-07T04:07:03.423Z,71.30
2017-09-07T04:09:31.742Z,71.30
2017-09-07T04:11:59.293Z,71.20
2017-09-07T04:14:26.871Z,71.10
2017-09-07T04:16:54.411Z,71.40
2017-09-07T04:19:21.992Z,71.30
2017-09-07T04:21:49.555Z,70.90
2017-09-07T04:24:17.125Z,72.00
2017-09-07T04:26:44.705Z,71.50
2017-09-07T04:29:13.011Z,71.60
2017-09-07T04:31:40.593Z,71.60
2017-09-07T04:34:08.147Z,71.90
2017-09-07T04:36:35.687Z,72.10
2017-09-07T04:39:03.286Z,72.70
2017-09-07T04:41:30.850Z,72.90
2017-09-07T04:43:58.458Z,72.90
2017-09-07T04:46:26.025Z,72.30
2017-09-07T04:48:53.594Z,72.30
2017-09-07T04:51:21.179Z,72.30
2017-09-07T04:53:48.734Z,73.20
2017-09-07T04:56:16.326Z,73.20
2017-09-07T04:58:43.867Z,74.00
2017-09-07T05:01:11.422Z,73.40
2017-09-07T05:03:39.113Z,74.00
2017-09-07T05:06:06.717Z,75.20
2017-09-07T05:08:34.292Z,75.30
2017-09-07T05:11:01.848Z,74.80
2017-09-07T05:13:29.417Z,76.60
2017-09-07T05:15:57.010Z,76.40
2017-09-07T05:18:24.559Z,76.10
2017-09-07T05:20:52.149Z,76.80
2017-09-07T05:23:20.468Z,77.40
2017-09-07T05:25:48.010Z,77.30
2017-09-07T05:28:15.589Z,78.10
2017-09-07T05:30:43.148Z,79.20
2017-09-07T05:33:10.741Z,79.40
2017-09-07T05:35:39.685Z,79.10
2017-09-07T05:38:07.237Z,79.10
2017-09-07T05:40:34.836Z,81.10
2017-09-07T05:43:02.407Z,81.10
2017-09-07T05:45:30.004Z,81.20
2017-09-07T05:47:57.586Z,80.50
2017-09-07T05:50:25.146Z,80.00
2017-09-07T05:52:52.732Z,79.20
2017-09-07T05:55:20.313Z,79.30
2017-09-07T05:57:48.634Z,78.40
2017-09-07T06:00:16.224Z,78.40
2017-09-07T06:02:43.778Z,78.20
2017-09-07T06:05:11.378Z,78.30
2017-09-07T06:07:39.711Z,80.20
2017-09-07T06:10:07.282Z,80.20
2017-09-07T06:12:34.871Z,79.10
2017-09-07T06:15:03.197Z,78.80
2017-09-07T06:17:30.771Z,78.70
2017-09-07T06:19:58.325Z,79.60
2017-09-07T06:22:25.883Z,81.10
2017-09-07T06:24:53.497Z,80.40
2017-09-07T06:27:21.924Z,82.90
2017-09-07T06:29:49.511Z,82.90
2017-09-07T06:32:17.071Z,82.00
2017-09-07T06:34:44.642Z,82.50
2017-09-07T06:37:12.992Z,82.40
2017-09-07T06:39:40.549Z,82.40
2017-09-07T06:42:08.137Z,82.80
2017-09-07T06:44:36.457Z,81.50
2017-09-07T06:47:04.027Z,81.00
2017-09-07T06:49:31.604Z,82.00
2017-09-07T06:51:59.153Z,82.60
2017-09-07T06:54:26.733Z,82.10
2017-09-07T06:56:54.289Z,82.30
2017-09-07T06:59:21.857Z,82.30
2017-09-07T07:01:49.432Z,81.60
2017-09-07T07:04:17.004Z,81.40
2017-09-07T07:06:45.365Z,79.60
2017-09-07T07:09:12.918Z,79.70
2017-09-07T07:11:40.487Z,80.40
2017-09-07T07:14:08.837Z,78.90
2017-09-07T07:16:36.403Z,78.70
2017-09-07T07:19:04.002Z,78.80
2017-09-07T07:21:32.431Z,77.90
2017-09-07T07:23:59.990Z,77.80
2017-09-07T07:26:27.587Z,80.20
2017-09-07T07:28:55.139Z,79.20
2017-09-07T07:31:22.736Z,78.90
2017-09-07T07:33:51.056Z,78.90
2017-09-07T07:36:18.635Z,78.90
2017-09-07T07:38:46.216Z,76.70
2017-09-07T07:41:13.763Z,75.20
2017-09-07T07:43:41.365Z,77.10
2017-09-07T07:46:08.916Z,73.70
2017-09-07T07:48:36.483Z,74.20
2017-09-07T07:51:04.097Z,75.90
2017-09-07T07:53:31.637Z,76.50
2017-09-07T07:55:59.231Z,75.00
2017-09-07T07:58:26.776Z,75.40
2017-09-07T08:00:54.324Z,71.90
2017-09-07T08:03:21.905Z,75.30
2017-09-07T08:05:49.452Z,72.10
2017-09-07T08:08:17.031Z,72.10
2017-09-07T08:10:45.353Z,69.90
2017-09-07T08:13:12.894Z,69.90
2017-09-07T08:15:40.486Z,71.10
2017-09-07T08:18:08.024Z,72.00
2017-09-07T08:20:35.633Z,72.20
2017-09-07T08:23:03.199Z,70.70
2017-09-07T08:25:30.754Z,71.20
2017-09-07T08:27:58.350Z,70.40
2017-09-07T08:30:25.940Z,72.70
2017-09-07T08:32:53.516Z,72.60
2017-09-07T08:35:21.083Z,71.50
2017-09-07T08:37:48.644Z,71.20
2017-09-07T08:40:16.210Z,70.10
2017-09-07T08:42:43.770Z,69.30
2017-09-07T08:45:11.377Z,70.00
2017-09-07T08:47:38.932Z,70.50
2017-09-07T08:50:06.499Z,71.80
2017-09-07T08:52:34.064Z,70.20
2017-09-07T08:55:01.618Z,70.40
2017-09-07T08:57:29.194Z,71.90
2017-09-07T08:59:56.754Z,74.90
2017-09-07T09:02:24.317Z,74.50
2017-09-07T09:04:51.880Z,71.80
2017-09-07T09:07:19.434Z,70.40
2017-09-07T09:09:47.017Z,71.30
2017-09-07T09:12:14.571Z,72.10
2017-09-07T09:14:42.139Z,68.40
2017-09-07T09:17:09.733Z,68.20
2017-09-07T09:19:38.057Z,69.50
2017-09-07T09:22:05.638Z,69.50
2017-09-07T09:24:33.171Z,68.70
2017-09-07T09:27:00.711Z,68.40
2017-09-07T09:29:28.289Z,66.70
2017-09-07T09:31:55.843Z,66.50
2017-09-07T09:34:23.425Z,66.60
2017-09-07T09:36:50.977Z,66.00
2017-09-07T09:39:18.563Z,66.10
2017-09-07T09:41:46.139Z,65.70
2017-09-07T09:44:13.682Z,65.50
2017-09-07T09:46:41.269Z,66.90
2017-09-07T09:49:09.577Z,65.60
2017-09-07T09:51:37.125Z,64.80
2017-09-07T09:54:04.723Z,65.00
2017-09-07T09:56:32.271Z,65.90
2017-09-07T09:58:59.845Z,67.50
2017-09-07T10:01:28.174Z,69.20
2017-09-07T10:03:55.743Z,69.30
2017-09-07T10:06:23.313Z,70.90
2017-09-07T10:08:50.854Z,73.50
2017-09-07T10:11:18.427Z,74.40
2017-09-07T10:13:45.991Z,77.00
2017-09-07T10:16:13.536Z,75.50
2017-09-07T10:18:41.112Z,76.70
2017-09-07T10:21:08.662Z,77.30
2017-09-07T10:23:36.258Z,78.40
2017-09-07T10:26:03.827Z,78.80
2017-09-07T10:28:31.372Z,80.00
2017-09-07T10:30:58.939Z,80.90
2017-09-07T10:33:26.493Z,82.00
2017-09-07T10:35:54.077Z,82.40
2017-09-07T10:38:21.643Z,79.20
2017-09-07T10:40:49.965Z,78.30
2017-09-07T10:43:17.533Z,78.20
2017-09-07T10:45:45.081Z,76.30
2017-09-07T10:48:12.680Z,78.30
2017-09-07T10:50:40.257Z,77.20
2017-09-07T10:53:08.599Z,78.10
2017-09-07T10:55:36.174Z,77.60
2017-09-07T10:58:03.762Z,75.40
2017-09-07T11:00:32.129Z,72.90
2017-09-07T11:03:00.449Z,73.90
2017-09-07T11:05:28.012Z,73.60
2017-09-07T11:07:55.610Z,71.30
2017-09-07T11:10:23.181Z,67.10
2017-09-07T11:12:50.771Z,70.50
2017-09-07T11:15:18.339Z,67.70
2017-09-07T11:17:45.890Z,63.80
2017-09-07T11:20:14.227Z,60.90
2017-09-07T11:22:41.781Z,60.90
2017-09-07T11:25:09.332Z,63.40
2017-09-07T11:27:36.910Z,64.80
2017-09-07T11:30:04.462Z,64.60
2017-09-07T11:32:32.038Z,66.60
2017-09-07T11:34:59.616Z,63.70
2017-09-07T11:37:27.923Z,67.70
2017-09-07T11:39:55.495Z,67.70
2017-09-07T11:42:23.065Z,68.90
2017-09-07T11:44:50.646Z,69.60
2017-09-07T11:47:18.195Z,70.90
2017-09-07T11:49:45.764Z,68.70
2017-09-07T11:52:13.351Z,69.60
2017-09-07T11:54:41.700Z,68.00
2017-09-07T11:57:09.275Z,68.00
2017-09-07T11:59:37.607Z,66.90
2017-09-07T12:02:05.167Z,66.90
2017-09-07T12:04:32.747Z,68.60
2017-09-07T12:07:00.335Z,69.00
2017-09-07T12:09:28.685Z,65.70
2017-09-07T12:11:56.238Z,65.60
2017-09-07T12:14:23.819Z,64.40
2017-09-07T12:16:51.392Z,67.10
2017-09-07T12:19:19.743Z,67.30
2017-09-07T12:21:47.339Z,67.20
2017-09-07T12:24:14.920Z,66.00
2017-09-07T12:26:42.484Z,67.80
2017-09-07T12:29:10.077Z,64.90
2017-09-07T12:31:37.656Z,66.40
2017-09-07T12:34:05.252Z,62.80
2017-09-07T12:36:32.807Z,63.00
2017-09-07T12:39:00.353Z,63.20
2017-09-07T12:41:27.936Z,64.70
2017-09-07T12:43:55.489Z,67.90
2017-09-07T12:46:23.091Z,67.30
2017-09-07T12:48:50.663Z,66.10
2017-09-07T12:51:18.222Z,64.40
2017-09-07T12:53:45.812Z,67.20
2017-09-07T12:56:14.127Z,66.30
2017-09-07T12:58:41.715Z,66.30
2017-09-07T13:01:09.269Z,65.20
2017-09-07T13:03:36.825Z,63.20
2017-09-07T13:06:04.395Z,63.70
2017-09-07T13:08:31.937Z,64.70
2017-09-07T13:10:59.529Z,64.40
2017-09-07T13:13:27.074Z,59.00
2017-09-07T13:15:54.636Z,56.90
2017-09-07T13:18:22.216Z,58.20
2017-09-07T13:20:49.757Z,59.20
2017-09-07T13:23:18.119Z,59.30
2017-09-07T13:25:46.437Z,60.10
2017-09-07T13:28:14.770Z,63.10
2017-09-07T13:30:42.354Z,63.00
2017-09-07T13:33:09.888Z,62.30
2017-09-07T13:35:37.477Z,63.00
2017-09-07T13:38:05.024Z,61.80
2017-09-07T13:40:32.581Z,61.60
2017-09-07T13:43:00.153Z,62.30
2017-09-07T13:45:27.709Z,60.80
2017-09-07T13:47:55.298Z,61.90
2017-09-07T13:50:23.604Z,62.10
2017-09-07T13:52:51.147Z,62.10
2017-09-07T13:55:18.714Z,59.80
2017-09-07T13:57:46.275Z,59.40
2017-09-07T14:00:13.857Z,60.60
2017-09-07T14:02:41.423Z,58.90
2017-09-07T14:05:08.977Z,59.60
2017-09-07T14:07:36.544Z,58.10
2017-09-07T14:10:04.093Z,56.00
2017-09-07T14:12:31.809Z,58.60
2017-09-07T14:15:00.162Z,59.10
2017-09-07T14:17:27.727Z,59.10
2017-09-07T14:19:55.319Z,57.70
2017-09-07T14:22:23.680Z,57.40
2017-09-07T14:24:52.037Z,58.80
2017-09-07T14:27:19.589Z,58.00
2017-09-07T14:29:47.157Z,59.20
2017-09-07T14:32:14.751Z,58.00
2017-09-07T14:34:42.313Z,58.40
2017-09-07T14:37:09.925Z,60.00
2017-09-07T14:39:37.498Z,60.50
2017-09-07T14:42:05.142Z,59.50
2017-09-07T14:44:32.726Z,59.20
2017-09-07T14:47:00.277Z,57.60
2017-09-07T14:49:27.871Z,58.80
2017-09-07T14:51:56.194Z,60.00
2017-09-07T14:54:23.750Z,60.00
2017-09-07T14:56:51.344Z,61.10
2017-09-07T14:59:18.906Z,58.80
2017-09-07T15:01:46.511Z,60.60
2017-09-07T15:04:14.068Z,59.70
2017-09-07T15:06:41.620Z,59.70
2017-09-07T15:09:09.203Z,62.20
2017-09-07T15:11:36.762Z,60.70
2017-09-07T15:14:04.346Z,63.00
2017-09-07T15:16:31.907Z,62.60
2017-09-07T15:18:59.476Z,61.30
2017-09-07T15:21:27.071Z,62.50
2017-09-07T15:23:54.630Z,64.50
2017-09-07T15:26:22.988Z,65.80
2017-09-07T15:28:51.317Z,65.80
2017-09-07T15:31:18.885Z,65.70
2017-09-07T15:33:46.473Z,63.40
2017-09-07T15:36:14.029Z,66.30
2017-09-07T15:38:41.635Z,64.50
2017-09-07T15:41:09.189Z,65.80
2017-09-07T15:43:36.740Z,65.60
2017-09-07T15:46:04.340Z,63.60
2017-09-07T15:48:31.894Z,64.40
2017-09-07T15:50:59.484Z,64.00
2017-09-07T15:53:27.051Z,64.00
2017-09-07T15:55:54.613Z,64.50
2017-09-07T15:58:22.193Z,61.90
2017-09-07T16:00:50.551Z,63.50
2017-09-07T16:03:18.144Z,63.50
2017-09-07T16:05:45.698Z,64.70
2017-09-07T16:08:14.036Z,65.90
2017-09-07T16:10:41.617Z,65.90
2017-09-07T16:13:09.955Z,64.00
2017-09-07T16:15:37.551Z,64.00
2017-09-07T16:18:05.113Z,61.80
2017-09-07T16:20:32.660Z,64.80
2017-09-07T16:23:00.238Z,63.40
2017-09-07T16:25:28.582Z,64.10
2017-09-07T16:27:56.178Z,64.10
2017-09-07T16:30:24.525Z,66.60
2017-09-07T16:32:52.117Z,66.60
2017-09-07T16:35:20.470Z,67.20
2017-09-07T16:37:48.034Z,67.20
2017-09-07T16:40:15.650Z,68.50
2017-09-07T16:42:43.206Z,64.90
2017-09-07T16:45:10.752Z,67.80
2017-09-07T16:47:38.329Z,67.10
2017-09-07T16:50:05.897Z,66.00
2017-09-07T16:52:33.475Z,67.70
2017-09-07T16:55:01.032Z,69.60
2017-09-07T16:57:28.896Z,69.70
2017-09-07T16:59:56.532Z,69.90
2017-09-07T17:02:24.085Z,69.60
2017-09-07T17:04:51.637Z,70.80
2017-09-07T17:07:19.254Z,71.30
2017-09-07T17:09:46.990Z,71.30
2017-09-07T17:12:14.582Z,71.70
2017-09-07T17:14:42.162Z,71.50
2017-09-07T17:17:10.481Z,71.10
2017-09-07T17:19:38.085Z,71.00
2017-09-07T17:22:05.651Z,72.40
2017-09-07T17:24:33.205Z,72.60
2017-09-07T17:27:00.804Z,73.30
2017-09-07T17:29:28.412Z,73.50
2017-09-07T17:31:56.010Z,73.40
2017-09-07T17:34:24.344Z,73.50
2017-09-07T17:36:51.911Z,73.50
2017-09-07T17:39:20.249Z,73.80
2017-09-07T17:41:47.813Z,73.70
2017-09-07T17:44:15.409Z,73.80
2017-09-07T17:46:42.967Z,73.80
2017-09-07T17:49:10.536Z,74.00
2017-09-07T17:51:38.121Z,74.10
2017-09-07T17:54:06.455Z,74.60
2017-09-07T17:56:34.808Z,74.40
2017-09-07T17:59:02.352Z,74.30
2017-09-07T18:01:29.924Z,74.50
2017-09-07T18:03:57.510Z,74.60
2017-09-07T18:06:25.079Z,75.30
2017-09-07T18:08:52.657Z,74.90
2017-09-07T18:11:20.220Z,74.70
2017-09-07T18:13:47.783Z,74.30
2017-09-07T18:16:16.898Z,74.50
2017-09-07T18:18:44.523Z,74.40
2017-09-07T18:21:12.109Z,75.40
2017-09-07T18:23:40.414Z,75.60
2017-09-07T18:26:07.976Z,75.60
2017-09-07T18:28:35.569Z,75.90
2017-09-07T18:31:03.111Z,75.80
2017-09-07T18:33:30.693Z,75.40
2017-09-07T18:35:58.249Z,75.10
2017-09-07T18:38:25.900Z,75.30
2017-09-07T18:40:53.474Z,75.00
2017-09-07T18:43:21.010Z,75.20
2017-09-07T18:45:48.594Z,75.00
2017-09-07T18:48:16.899Z,75.50
2017-09-07T18:50:45.213Z,75.20
2017-09-07T18:53:12.793Z,75.20
2017-09-07T18:55:41.103Z,76.70
2017-09-07T18:58:08.693Z,76.10
2017-09-07T19:00:36.247Z,75.80
2017-09-07T19:03:03.799Z,75.60
2017-09-07T19:05:32.131Z,75.20
2017-09-07T19:07:59.695Z,75.20
2017-09-07T19:10:27.493Z,75.00
2017-09-07T19:12:55.807Z,75.40
2017-09-07T19:15:23.383Z,75.30
2017-09-07T19:17:50.939Z,75.40
2017-09-07T19:20:18.496Z,75.20
2017-09-07T19:22:46.083Z,75.50
2017-09-07T19:25:13.645Z,75.40
2017-09-07T19:27:41.203Z,74.70
2017-09-07T19:30:08.778Z,75.10
2017-09-07T19:32:36.322Z,75.90
2017-09-07T19:35:04.688Z,76.00
2017-09-07T19:37:32.244Z,76.10
2017-09-07T19:39:59.793Z,76.70
2017-09-07T19:42:27.365Z,76.70
2017-09-07T19:44:55.669Z,77.00
2017-09-07T19:47:24.043Z,77.10
2017-09-07T19:49:51.611Z,76.80
2017-09-07T19:52:19.175Z,76.90
2017-09-07T19:54:47.609Z,77.30
2017-09-07T19:57:15.188Z,77.30
2017-09-07T19:59:42.759Z,77.20
2017-09-07T20:02:10.304Z,77.40
2017-09-07T20:04:37.857Z,78.10
2017-09-07T20:07:05.429Z,77.90
2017-09-07T20:09:32.984Z,77.50
2017-09-07T20:12:00.564Z,77.50
2017-09-07T20:14:28.125Z,79.20
2017-09-07T20:16:55.795Z,79.60
2017-09-07T20:19:24.117Z,80.20
2017-09-07T20:21:51.667Z,80.20
2017-09-07T20:24:19.252Z,80.40
2017-09-07T20:26:46.813Z,80.70
2017-09-07T20:29:14.410Z,80.80
2017-09-07T20:31:41.956Z,79.00
2017-09-07T20:34:09.523Z,79.60
2017-09-07T20:36:37.860Z,78.70
2017-09-07T20:39:05.403Z,78.60
2017-09-07T20:41:32.999Z,78.80
2017-09-07T20:44:00.553Z,79.70
2017-09-07T20:46:28.099Z,78.10
2017-09-07T20:48:55.689Z,78.30
2017-09-07T20:51:23.242Z,78.30
2017-09-07T20:53:50.843Z,79.20
2017-09-07T20:56:19.168Z,78.30
2017-09-07T20:58:46.717Z,78.30
2017-09-07T21:01:14.307Z,78.90
2017-09-07T21:03:41.874Z,78.60
2017-09-07T21:06:10.233Z,79.20
2017-09-07T21:08:37.789Z,78.30
2017-09-07T21:11:05.354Z,78.90
2017-09-07T21:13:32.932Z,79.60
2017-09-07T21:16:00.485Z,79.20
2017-09-07T21:18:28.082Z,79.30
2017-09-07T21:20:55.641Z,77.70
2017-09-07T21:23:23.201Z,78.10
2017-09-07T21:25:50.772Z,78.00
2017-09-07T21:28:18.325Z,78.40
2017-09-07T21:30:45.900Z,78.30
2017-09-07T21:33:13.465Z,77.70
2017-09-07T21:35:41.035Z,78.30
2017-09-07T21:38:08.618Z,81.20
2017-09-07T21:40:36.187Z,80.80
2017-09-07T21:43:03.782Z,78.70
2017-09-07T21:45:31.329Z,79.60
2017-09-07T21:47:59.645Z,78.40
2017-09-07T21:50:27.238Z,78.40
2017-09-07T21:52:54.811Z,77.80
2017-09-07T21:55:22.405Z,79.30
2017-09-07T21:57:49.947Z,80.10
2017-09-07T22:00:18.275Z,78.60
2017-09-07T22:02:45.870Z,78.50
2017-09-07T22:05:13.429Z,79.20
2017-09-07T22:07:41.784Z,78.60
2017-09-07T22:10:09.335Z,78.60
2017-09-07T22:12:36.895Z,80.80
2017-09-07T22:15:04.473Z,82.00
2017-09-07T22:17:32.030Z,81.40
2017-09-07T22:19:59.617Z,81.80
2017-09-07T22:22:27.203Z,81.20
2017-09-07T22:24:55.665Z,80.80
2017-09-07T22:27:23.242Z,79.40
2017-09-07T22:29:50.806Z,80.60
2017-09-07T22:32:18.403Z,80.80
2017-09-07T22:34:45.963Z,80.80
2017-09-07T22:37:13.516Z,77.80
2017-09-07T22:39:41.092Z,79.20
2017-09-07T22:42:09.407Z,83.30
2017-09-07T22:44:37.002Z,83.50
2017-09-07T22:47:04.556Z,80.80
2017-09-07T22:49:32.113Z,80.90
2017-09-07T22:51:59.672Z,79.20
2017-09-07T22:54:27.216Z,80.70
2017-09-07T22:56:54.796Z,80.80
2017-09-07T22:59:22.359Z,82.50
2017-09-07T23:01:49.899Z,82.80
2017-09-07T23:04:17.478Z,83.30
2017-09-07T23:06:45.026Z,82.20
2017-09-07T23:09:12.606Z,83.70
2017-09-07T23:11:40.181Z,83.60
2017-09-07T23:14:08.515Z,82.80
2017-09-07T23:16:36.099Z,82.20
2017-09-07T23:19:03.674Z,81.40
2017-09-07T23:21:31.269Z,81.80
2017-09-07T23:23:59.612Z,83.00
2017-09-07T23:26:27.187Z,83.00
2017-09-07T23:28:55.548Z,82.10
2017-09-07T23:31:23.101Z,82.10
2017-09-07T23:33:50.729Z,82.60
2017-09-07T23:36:18.267Z,81.50
2017-09-07T23:38:45.810Z,82.70
2017-09-07T23:41:14.167Z,85.10
2017-09-07T23:43:41.725Z,85.10
2017-09-07T23:46:09.273Z,84.70
2017-09-07T23:48:36.883Z,84.60
2017-09-07T23:51:04.435Z,85.30
2017-09-07T23:53:32.015Z,85.10
2017-09-07T23:55:59.556Z,82.70
2017-09-07T23:58:27.122Z,82.30
